Time;durP1;ratioP1;P1;durP2;ratioP2;P2;SDS_P1;SDS_P2;PMS_P1;PMS_P2;Temp;Humidity;BMP_temperature;BMP_pressure;BME280_temperature;BME280_humidity;BME280_pressure;Samples;Min_cycle;Max_cycle;Signal;HPM_P1;HPM_P2
2022/12/04 00:01:57;;;;;;;76.30;32.83;;;;;;;-0.36;97.74;101825.59;5032798;28;20116;-78
2022/12/04 00:04:22;;;;;;;79.95;33.45;;;;;;;-0.61;98.34;101775.75;5032802;28;20116;-79
2022/12/04 00:06:48;;;;;;;78.05;33.40;;;;;;;-0.32;98.31;101824.72;5033198;28;20137;-80
2022/12/04 00:09:13;;;;;;;76.07;32.25;;;;;;;-0.31;98.19;101826.41;5032635;28;20105;-80
2022/12/04 00:11:38;;;;;;;78.13;33.78;;;;;;;-0.45;98.45;101807.84;5032716;28;20434;-83
2022/12/04 00:14:04;;;;;;;81.13;33.30;;;;;;;-0.52;98.19;101787.56;5032454;28;20085;-84
2022/12/04 00:16:30;;;;;;;77.90;34.13;;;;;;;-0.34;98.11;101823.91;5032721;28;20052;-83
2022/12/04 00:18:55;;;;;;;84.28;35.15;;;;;;;-0.42;98.50;101799.38;5032633;28;20029;-83
2022/12/04 00:21:22;;;;;;;74.82;34.03;;;;;;;-0.60;98.46;101775.72;5032675;28;20117;-84
2022/12/04 00:23:48;;;;;;;81.95;33.78;;;;;;;-0.41;98.72;101801.06;5032841;28;20381;-84
2022/12/04 00:26:19;;;;;;;73.45;31.67;;;;;;;-0.32;98.10;101814.59;5032401;28;20029;-83
2022/12/04 00:28:46;;;;;;;75.63;32.60;;;;;;;-0.35;98.21;101809.53;5039733;23;20050;-84
2022/12/04 00:31:14;;;;;;;80.88;34.53;;;;;;;-0.63;98.55;101765.59;5032690;28;20021;-82
2022/12/04 00:33:40;;;;;;;76.72;33.13;;;;;;;-0.56;98.37;101776.59;5032438;28;20167;-82
2022/12/04 00:36:08;;;;;;;76.88;31.92;;;;;;;-0.33;98.67;101806.97;5032341;28;20040;-83
2022/12/04 00:38:35;;;;;;;71.72;32.75;;;;;;;-0.33;98.14;101810.34;5031349;28;20080;-84
2022/12/04 00:41:00;;;;;;;78.75;32.72;;;;;;;-0.36;98.48;101801.91;5032526;28;20026;-83
2022/12/04 00:43:27;;;;;;;72.60;33.17;;;;;;;-0.45;98.45;101792.63;5032447;28;20028;-84
2022/12/04 00:45:52;;;;;;;74.22;33.97;;;;;;;-0.57;98.52;101776.59;5031116;28;20096;-84
2022/12/04 00:48:18;;;;;;;76.10;34.17;;;;;;;-0.39;98.33;101805.31;5032333;28;20029;-83
2022/12/04 00:50:44;;;;;;;76.72;33.15;;;;;;;-0.56;98.35;101778.28;5032324;28;20658;-83
2022/12/04 00:53:09;;;;;;;76.13;33.60;;;;;;;-0.55;98.58;101773.19;5032300;28;20036;-82
2022/12/04 00:55:39;;;;;;;74.07;32.63;;;;;;;-0.41;98.53;101804.44;5031396;28;20032;-83
2022/12/04 00:58:06;;;;;;;78.55;33.15;;;;;;;-0.40;98.61;101800.22;5032263;28;20422;-83
2022/12/04 01:00:39;;;;;;;78.78;34.80;;;;;;;-0.74;98.53;101748.72;5032347;28;20026;-83
2022/12/04 01:03:05;;;;;;;77.50;33.60;;;;;;;-0.63;98.54;101765.59;5033962;28;20051;-81
2022/12/04 01:05:31;;;;;;;74.82;32.75;;;;;;;-0.40;98.57;101808.66;5035977;28;20029;-83
2022/12/04 01:07:56;;;;;;;76.45;34.45;;;;;;;-0.45;98.71;101805.31;5036186;28;20029;-83
2022/12/04 01:10:22;;;;;;;74.22;32.65;;;;;;;-0.63;99.13;101764.75;5036108;28;20021;-84
2022/12/04 01:12:49;;;;;;;74.18;32.22;;;;;;;-0.58;98.94;101785.91;5035673;28;20056;-83
2022/12/04 01:15:14;;;;;;;76.28;33.28;;;;;;;-0.41;98.63;101819.66;5035792;28;20095;-84
2022/12/04 01:17:40;;;;;;;75.03;32.60;;;;;;;-0.61;98.73;101785.88;5035578;28;20492;-82
2022/12/04 01:20:06;;;;;;;79.60;34.20;;;;;;;-0.44;98.88;101818.84;5035565;28;20025;-83
2022/12/04 01:22:31;;;;;;;75.45;33.85;;;;;;;-0.45;99.15;101820.53;5035659;28;20018;-84
2022/12/04 01:24:57;;;;;;;77.93;33.28;;;;;;;-0.43;99.11;101812.91;5035562;28;20444;-83
2022/12/04 01:27:23;;;;;;;77.43;33.72;;;;;;;-0.52;99.00;101801.09;5178330;22;20053;-84
2022/12/04 01:29:49;;;;;;;76.07;34.00;;;;;;;-0.59;99.33;101790.13;5035203;28;20033;-81
2022/12/04 01:32:14;;;;;;;78.40;32.88;;;;;;;-0.43;99.04;101815.47;5035231;28;20397;-80
2022/12/04 01:34:39;;;;;;;78.18;34.15;;;;;;;-0.41;99.25;101817.13;5035200;28;20064;-80
2022/12/04 01:37:05;;;;;;;75.93;34.00;;;;;;;-0.59;99.40;101789.25;5035231;28;20032;-80
2022/12/04 01:39:30;;;;;;;68.93;32.22;;;;;;;-0.51;99.27;101796.88;5035245;28;20362;-81
2022/12/04 01:41:55;;;;;;;77.45;33.78;;;;;;;-0.40;99.28;101808.66;5035072;28;20021;-80
2022/12/04 01:44:23;;;;;;;76.95;33.63;;;;;;;-0.40;98.89;101806.13;5034912;28;20100;-80
2022/12/04 01:46:56;;;;;;;72.70;34.05;;;;;;;-0.52;98.74;101792.63;5035124;28;20116;-80
2022/12/04 01:49:41;;;;;;;78.05;33.92;;;;;;;-0.55;98.97;101785.03;5034991;28;20017;-80
2022/12/04 01:52:19;;;;;;;76.43;33.05;;;;;;;-0.40;99.00;101803.59;5035346;28;20351;-80
2022/12/04 01:54:48;;;;;;;76.13;33.15;;;;;;;-0.44;99.20;101791.78;5034882;28;20091;-80
2022/12/04 01:57:20;;;;;;;79.60;35.10;;;;;;;-0.75;99.04;101741.97;5034988;28;20029;-80
2022/12/04 01:59:56;;;;;;;73.63;34.55;;;;;;;-0.44;98.93;101793.47;5034541;28;20477;-80
2022/12/04 02:02:46;;;;;;;79.13;34.80;;;;;;;-0.43;98.83;101798.53;5141109;22;20012;-80
2022/12/04 02:05:15;;;;;;;74.07;33.58;;;;;;;-0.64;99.01;101760.53;5034113;28;20043;-80
2022/12/04 02:07:44;;;;;;;74.50;33.55;;;;;;;-0.44;98.98;101801.94;5034770;28;20076;-80
2022/12/04 02:10:10;;;;;;;85.53;36.83;;;;;;;-0.68;99.21;101756.31;5034969;28;20073;-80
2022/12/04 02:12:47;;;;;;;76.55;33.78;;;;;;;-0.42;99.18;101791.78;5034090;28;20033;-79
2022/12/04 02:15:27;;;;;;;82.80;35.45;;;;;;;-0.44;99.06;101799.38;5034625;28;20028;-80
2022/12/04 02:18:13;;;;;;;76.63;33.97;;;;;;;-0.42;98.96;101796.84;5034438;28;20457;-80
2022/12/04 02:20:53;;;;;;;78.63;34.25;;;;;;;-0.43;99.46;101796.00;5034347;28;20100;-81
2022/12/04 02:23:31;;;;;;;77.20;35.22;;;;;;;-0.40;99.23;101808.66;5034708;28;20033;-81
2022/12/04 02:26:08;;;;;;;82.65;35.83;;;;;;;-0.40;99.13;101798.53;5033227;28;20052;-81
2022/12/04 02:29:00;;;;;;;76.55;35.35;;;;;;;-0.55;99.48;101765.59;5034097;28;20040;-79
2022/12/04 02:31:49;;;;;;;78.57;34.13;;;;;;;-0.39;99.10;101796.88;5034240;28;20033;-80
2022/12/04 02:34:24;;;;;;;82.10;36.25;;;;;;;-0.77;99.25;101741.97;4973383;28;20095;-82
2022/12/04 02:36:56;;;;;;;81.00;35.63;;;;;;;-0.45;99.12;101790.09;4973364;28;20070;-80
2022/12/04 02:39:33;;;;;;;79.93;34.33;;;;;;;-0.41;99.25;101803.59;4973301;28;20038;-80
2022/12/04 02:42:06;;;;;;;74.07;32.97;;;;;;;-0.42;99.29;101797.69;4973050;28;20039;-80
2022/12/04 02:44:49;;;;;;;86.15;37.83;;;;;;;-0.43;99.15;101800.22;4972980;28;20027;-81
2022/12/04 02:47:21;;;;;;;78.07;35.72;;;;;;;-0.44;99.16;101798.53;4973140;28;20118;-80
2022/12/04 02:49:53;;;;;;;80.00;35.17;;;;;;;-0.45;99.22;101790.09;4973111;28;20115;-79
2022/12/04 02:52:24;;;;;;;81.35;34.88;;;;;;;-0.57;99.07;101769.81;4973060;28;20118;-80
2022/12/04 02:54:56;;;;;;;79.15;36.35;;;;;;;-0.57;99.38;101771.53;4972860;28;20082;-80
2022/12/04 02:57:27;;;;;;;;;;;;;;;-0.39;99.33;101787.56;4973388;28;20481;-83
2022/12/04 02:59:56;;;;;;;78.28;33.80;;;;;;;-0.52;99.33;101755.44;4972797;28;20364;-80
2022/12/04 03:02:30;;;;;;;86.72;36.25;;;;;;;-0.38;99.13;101780.78;4972918;28;20037;-81
2022/12/04 03:04:59;;;;;;;76.07;35.50;;;;;;;-0.47;99.23;101768.13;4972768;28;20039;-83
2022/12/04 03:07:37;;;;;;;81.07;35.67;;;;;;;-0.62;99.54;101736.84;4972831;28;20224;-84
2022/12/04 03:10:10;;;;;;;73.72;33.58;;;;;;;-0.38;99.24;101768.09;4973449;28;20491;-84
2022/12/04 03:12:42;;;;;;;82.28;36.03;;;;;;;-0.40;99.04;101773.16;5033472;28;20071;-83
2022/12/04 03:15:27;;;;;;;;;;;;;;;-0.39;99.14;101772.31;5033917;28;20021;-83
2022/12/04 03:18:01;;;;;;;80.15;35.70;;;;;;;-0.75;98.85;101727.59;5033229;28;19920;-84
2022/12/04 03:20:30;;;;;;;79.10;36.28;;;;;;;-0.42;99.15;101779.94;5033579;28;20033;-84
2022/12/04 03:23:03;;;;;;;76.15;36.55;;;;;;;-0.41;99.49;101778.22;5033408;28;20111;-84
2022/12/04 03:25:36;;;;;;;80.30;35.92;;;;;;;-0.40;99.55;101780.75;5032975;28;20126;-81
2022/12/04 03:28:10;;;;;;;77.47;34.97;;;;;;;-0.44;99.42;101773.16;5033345;28;20032;-82
2022/12/04 03:30:40;;;;;;;76.72;35.50;;;;;;;-0.40;99.44;101779.91;5033322;28;20017;-83
2022/12/04 03:33:17;;;;;;;79.40;35.60;;;;;;;-0.41;99.35;101774.00;5033168;28;20030;-84
2022/12/04 03:35:51;;;;;;;83.93;36.55;;;;;;;-0.39;99.78;101779.94;5033162;28;20083;-83
2022/12/04 03:38:20;;;;;;;77.95;35.53;;;;;;;-0.41;99.42;101775.69;5033237;28;20032;-84
2022/12/04 03:41:08;;;;;;;76.88;35.58;;;;;;;-0.40;99.68;101775.69;5032971;28;20032;-84
2022/12/04 03:43:47;;;;;;;78.65;34.85;;;;;;;-0.59;99.70;101744.47;5033174;28;20388;-82
2022/12/04 03:46:35;;;;;;;81.82;34.00;;;;;;;-0.36;99.16;101769.78;5033006;28;20075;-84
2022/12/04 03:49:16;;;;;;;81.13;36.20;;;;;;;-0.39;99.38;101764.72;5032967;28;20041;-84
2022/12/04 03:51:59;;;;;;;80.00;36.92;;;;;;;-0.42;99.28;101754.56;5032990;28;20113;-84
2022/12/04 03:54:39;;;;;;;80.10;38.25;;;;;;;-0.34;99.15;101768.06;5032917;28;20026;-83
2022/12/04 03:57:13;;;;;;;80.88;37.22;;;;;;;-0.41;99.21;101765.53;5032913;28;20184;-85
2022/12/04 03:59:44;;;;;;;81.15;37.47;;;;;;;-0.68;99.25;101719.13;5032626;28;20040;-83
2022/12/04 04:02:14;;;;;;;82.03;35.65;;;;;;;-0.48;99.30;101762.19;5033141;28;20026;-83
2022/12/04 04:04:43;;;;;;;77.55;35.20;;;;;;;-0.55;99.48;101745.28;5032651;28;20045;-84
2022/12/04 04:07:32;;;;;;;82.68;35.88;;;;;;;-0.39;99.63;101763.88;5032965;28;20022;-82
2022/12/04 04:10:05;;;;;;;77.28;33.90;;;;;;;-0.58;99.24;101737.69;5032813;28;20074;-83
2022/12/04 04:12:38;;;;;;;76.20;35.25;;;;;;;-0.59;99.39;101726.72;5032772;28;20068;-83
2022/12/04 04:26:40;;;;;;;82.43;36.95;;;;;;;-0.58;99.02;101740.25;5033111;28;20044;-81
2022/12/04 04:29:05;;;;;;;81.63;36.90;;;;;;;-0.50;99.14;101751.19;5032598;28;20026;-83
2022/12/04 04:31:36;;;;;;;80.85;36.20;;;;;;;-0.41;99.25;101761.31;5032632;28;20036;-84
2022/12/04 04:34:08;;;;;;;79.85;35.65;;;;;;;-0.39;99.21;101761.34;5032401;28;20033;-84
2022/12/04 04:36:53;;;;;;;76.72;34.95;;;;;;;-0.53;98.92;101732.59;5031381;28;20026;-83
2022/12/04 04:39:23;;;;;;;76.53;35.92;;;;;;;-0.57;99.04;101734.31;5036519;28;20465;-84
2022/12/04 04:41:55;;;;;;;77.68;36.03;;;;;;;-0.61;99.48;101730.06;5036535;28;20179;-84
2022/12/04 04:44:28;;;;;;;79.35;36.40;;;;;;;-0.50;99.44;101738.50;5036520;28;20039;-84
2022/12/04 04:47:00;;;;;;;75.90;35.92;;;;;;;-0.37;99.26;101755.41;5036066;28;20044;-84
2022/12/04 04:49:31;;;;;;;79.05;34.85;;;;;;;-0.48;99.39;101749.50;5036290;28;20406;-83
2022/12/04 04:51:58;;;;;;;77.38;34.83;;;;;;;-0.37;99.59;101767.25;5036223;28;20021;-83
2022/12/04 04:54:24;;;;;;;73.88;34.55;;;;;;;-0.39;99.37;101764.72;5036071;28;20041;-84
2022/12/04 04:56:50;;;;;;;77.60;36.50;;;;;;;-1.66;99.23;101557.94;5195805;22;20168;-84
2022/12/04 04:59:21;;;;;;;78.05;35.63;;;;;;;-1.30;99.77;101623.72;5016315;28;20065;-83
2022/12/04 05:01:50;;;;;;;74.97;34.17;;;;;;;-0.39;99.70;101767.25;5016204;28;20029;-79
2022/12/04 05:10:09;;;;;;;80.07;34.85;;;;;;;-0.54;99.63;101748.66;5050501;22;20053;-80
2022/12/04 05:12:35;;;;;;;79.07;35.17;;;;;;;-0.41;99.81;101768.91;5035816;28;20061;-81
2022/12/04 05:15:00;;;;;;;80.88;34.70;;;;;;;-0.47;99.99;101753.75;5035589;28;20111;-80
2022/12/04 05:17:25;;;;;;;80.28;35.13;;;;;;;-0.38;99.77;101766.41;5035308;28;20480;-79
2022/12/04 05:19:55;;;;;;;78.38;35.72;;;;;;;-0.37;99.89;101769.78;5259086;22;20390;-80
2022/12/04 05:22:33;;;;;;;84.20;35.72;;;;;;;-0.57;100.00;101728.41;5035714;28;20021;-79
2022/12/04 05:24:59;;;;;;;83.57;36.60;;;;;;;-0.35;99.95;101774.00;5035646;28;20030;-80
2022/12/04 05:27:26;;;;;;;79.75;35.08;;;;;;;-0.44;100.00;101763.88;5035570;28;20021;-80
2022/12/04 05:29:53;;;;;;;71.30;34.70;;;;;;;-0.58;99.90;101740.25;5035174;28;20052;-80
2022/12/04 05:32:20;;;;;;;82.28;36.42;;;;;;;-0.36;99.86;101777.38;5035534;28;20037;-80
2022/12/04 05:34:52;;;;;;;78.28;35.42;;;;;;;-0.34;100.00;101777.38;5035458;28;20070;-80
2022/12/04 05:37:18;;;;;;;78.15;36.05;;;;;;;-0.35;100.00;101771.47;5035734;28;20032;-81
2022/12/04 05:39:43;;;;;;;77.20;35.08;;;;;;;-0.48;99.89;101746.97;5035282;28;20029;-80
2022/12/04 05:42:09;;;;;;;79.90;36.08;;;;;;;-0.33;100.00;101774.00;5035399;28;20488;-80
2022/12/04 05:44:35;;;;;;;80.45;36.10;;;;;;;-0.31;100.00;101773.13;5017361;28;20136;-79
2022/12/04 05:47:00;;;;;;;83.40;36.75;;;;;;;-0.48;100.00;101739.38;5035095;28;20037;-80
2022/12/04 05:49:30;;;;;;;77.57;35.80;;;;;;;-0.45;100.00;101743.56;5034581;28;20111;-81
2022/12/04 05:51:55;;;;;;;78.85;36.90;;;;;;;-0.50;100.00;101728.34;5035253;28;20029;-80
2022/12/04 05:54:21;;;;;;;83.55;36.78;;;;;;;-0.32;100.00;101758.75;5035022;28;20411;-80
2022/12/04 05:56:46;;;;;;;77.07;36.28;;;;;;;-0.35;100.00;101752.84;5034917;28;20033;-78
2022/12/04 05:59:13;;;;;;;82.82;35.70;;;;;;;-0.32;100.00;101757.91;5035027;28;20049;-84
2022/12/04 06:01:40;;;;;;;76.70;34.30;;;;;;;-0.32;100.00;101752.81;5034778;28;20029;-83
2022/12/04 06:04:05;;;;;;;80.57;35.65;;;;;;;-0.34;100.00;101762.16;5034872;28;20534;-83
2022/12/04 06:06:31;;;;;;;82.20;35.50;;;;;;;-0.49;100.00;101725.00;5034844;28;20029;-84
2022/12/04 06:08:58;;;;;;;82.03;37.28;;;;;;;-0.35;100.00;101741.00;5034872;28;20029;-84
2022/12/04 06:11:29;;;;;;;83.88;37.38;;;;;;;-0.52;100.00;101724.97;5034571;28;20037;-83
2022/12/04 06:13:55;;;;;;;84.30;36.72;;;;;;;-0.41;100.00;101733.41;5034631;28;20025;-83
2022/12/04 06:16:23;;;;;;;80.07;33.58;;;;;;;-0.41;100.00;101728.31;5034636;28;20029;-84
2022/12/04 06:18:55;;;;;;;74.50;34.95;;;;;;;-0.51;100.00;101719.06;5049536;22;20041;-84
2022/12/04 06:21:22;;;;;;;89.47;36.30;;;;;;;-0.33;100.00;101751.16;5054463;28;20036;-84
2022/12/04 06:23:47;;;;;;;79.13;35.90;;;;;;;-0.32;100.00;101748.59;5054544;28;20111;-80
2022/12/04 06:26:13;;;;;;;76.60;34.28;;;;;;;-0.50;100.00;101712.28;5054310;28;20129;-81
2022/12/04 06:28:39;;;;;;;80.78;36.15;;;;;;;-0.33;100.00;101748.59;5054332;28;20029;-81
2022/12/04 06:31:08;;;;;;;76.97;36.35;;;;;;;-0.36;100.00;101749.47;5054488;28;20357;-82
2022/12/04 06:33:34;;;;;;;82.88;36.42;;;;;;;-0.59;100.00;101713.16;5052791;28;20060;-81
2022/12/04 06:35:59;;;;;;;80.32;34.85;;;;;;;-0.36;100.00;101751.16;5054317;28;20053;-78
2022/12/04 06:38:24;;;;;;;81.75;37.15;;;;;;;-0.35;100.00;101750.31;5054234;28;20104;-80
2022/12/04 06:40:49;;;;;;;80.35;36.00;;;;;;;-0.54;100.00;101723.31;5054134;28;20033;-78
2022/12/04 06:43:15;;;;;;;77.32;33.83;;;;;;;-0.30;100.00;101758.75;5052999;28;20041;-79
2022/12/04 06:45:40;;;;;;;77.78;35.30;;;;;;;-0.29;100.00;101752.84;5053920;28;20103;-78
2022/12/04 06:48:05;;;;;;;82.20;36.42;;;;;;;-0.39;100.00;101746.94;5054151;28;20067;-78
2022/12/04 06:50:31;;;;;;;77.20;36.20;;;;;;;-0.67;100.00;101700.50;5054057;28;20028;-77
2022/12/04 06:52:56;;;;;;;79.43;34.65;;;;;;;-0.57;100.00;101711.47;5053827;28;20029;-80
2022/12/04 06:55:22;;;;;;;79.50;35.15;;;;;;;-0.31;100.00;101755.34;5054000;28;20094;-78
2022/12/04 06:57:48;;;;;;;75.57;34.55;;;;;;;-0.33;100.00;101764.69;5053959;28;20025;-77
2022/12/04 07:00:13;;;;;;;72.57;34.42;;;;;;;-0.37;100.00;101760.47;5052883;28;20480;-79
2022/12/04 07:02:39;;;;;;;69.00;33.45;;;;;;;-0.34;100.00;101763.00;5053807;28;20032;-80
2022/12/04 07:05:05;;;;;;;71.85;34.28;;;;;;;-0.36;100.00;101759.63;5053727;28;20023;-76
2022/12/04 07:07:30;;;;;;;74.20;34.05;;;;;;;-0.36;100.00;101758.78;5053654;28;20056;-80
2022/12/04 07:09:57;;;;;;;71.15;34.10;;;;;;;-0.39;100.00;101768.94;5053830;28;20068;-78
2022/12/04 07:12:23;;;;;;;77.40;34.17;;;;;;;-0.35;100.00;101778.22;5053826;28;20025;-81
2022/12/04 07:14:48;;;;;;;71.05;31.98;;;;;;;-0.34;100.00;101783.28;5053767;28;20040;-82
2022/12/04 07:17:13;;;;;;;69.93;34.03;;;;;;;-0.57;100.00;101751.22;5053616;28;20040;-85
2022/12/04 07:19:39;;;;;;;72.05;33.40;;;;;;;-0.34;100.00;101782.44;5053364;28;20053;-85
2022/12/04 07:22:05;;;;;;;72.75;32.83;;;;;;;-0.34;100.00;101787.53;5053377;28;20041;-84
2022/12/04 07:24:30;;;;;;;71.07;33.38;;;;;;;-0.47;100.00;101771.50;5053538;28;20117;-85
2022/12/04 07:26:56;;;;;;;70.70;32.20;;;;;;;-0.32;100.00;101790.91;5051390;28;20510;-84
2022/12/04 07:29:21;;;;;;;65.63;32.08;;;;;;;-0.67;100.00;101732.66;5053485;28;20021;-84
2022/12/04 07:31:46;;;;;;;67.70;32.15;;;;;;;-0.29;100.00;101801.06;5053231;28;20060;-84
2022/12/04 07:34:12;;;;;;;68.28;32.28;;;;;;;-0.28;100.00;101797.66;5052545;28;20035;-86
2022/12/04 07:36:39;;;;;;;71.85;32.33;;;;;;;-0.25;100.00;101796.81;5052700;28;20068;-86
2022/12/04 07:39:05;;;;;;;69.55;31.83;;;;;;;-0.30;100.00;101784.13;5052816;28;20017;-85
2022/12/04 07:41:30;;;;;;;67.30;31.83;;;;;;;-0.33;100.00;101782.44;5053147;28;20036;-83
2022/12/04 07:43:55;;;;;;;69.95;32.58;;;;;;;-0.32;99.91;101786.66;5053123;28;20048;-86
2022/12/04 07:46:24;;;;;;;66.07;31.52;;;;;;;-0.31;100.00;101788.34;5052950;28;20033;-84
2022/12/04 07:48:50;;;;;;;66.80;32.03;;;;;;;-0.25;100.00;101784.13;5052997;28;20028;-84
2022/12/04 07:51:20;;;;;;;71.47;32.28;;;;;;;-0.25;100.00;101787.50;5053314;28;20461;-85
2022/12/04 07:53:47;;;;;;;64.53;31.25;;;;;;;-0.23;100.00;101797.66;5052934;28;20033;-82
2022/12/04 07:56:13;;;;;;;64.22;30.42;;;;;;;-0.22;100.00;101800.19;5052979;28;20051;-85
2022/12/04 07:58:39;;;;;;;69.97;31.05;;;;;;;-0.22;100.00;101796.78;5052953;28;20036;-84
2022/12/04 08:01:06;;;;;;;62.72;30.38;;;;;;;-0.38;100.00;101776.56;5056594;28;20021;-80
2022/12/04 08:03:31;;;;;;;64.25;30.73;;;;;;;-0.21;100.00;101801.03;5073140;28;20541;-80
2022/12/04 08:06:01;;;;;;;59.60;30.10;;;;;;;-0.40;100.00;101770.59;5073030;28;20028;-85
2022/12/04 08:08:27;;;;;;;58.28;28.63;;;;;;;-0.19;100.00;101802.72;5072956;28;20492;-83
2022/12/04 08:10:52;;;;;;;66.32;30.73;;;;;;;-0.28;100.00;101787.53;5073175;28;20052;-84
2022/12/04 08:13:17;;;;;;;57.85;28.83;;;;;;;-0.14;100.00;101808.63;5076990;28;20491;-86
2022/12/04 08:15:43;;;;;;;59.97;29.50;;;;;;;-0.13;99.88;101805.22;5076915;28;20029;-83
2022/12/04 08:18:08;;;;;;;57.80;28.95;;;;;;;-0.20;100.00;101785.78;5076742;28;20036;-84
2022/12/04 08:20:33;;;;;;;58.00;28.77;;;;;;;-0.16;99.91;101792.56;5077305;28;20044;-85
2022/12/04 08:22:59;;;;;;;62.03;28.48;;;;;;;-0.04;99.62;101809.44;5078026;28;20369;-85
2022/12/04 08:25:24;;;;;;;58.25;28.10;;;;;;;-0.01;98.93;101809.41;5076952;28;20024;-85
2022/12/04 08:27:49;;;;;;;56.00;27.80;;;;;;;-0.01;98.58;101822.09;5076056;28;20028;-89
2022/12/04 08:30:15;;;;;;;59.35;28.65;;;;;;;0.02;99.35;101813.66;5077808;28;20021;-80
2022/12/04 08:32:40;;;;;;;57.50;28.65;;;;;;;0.02;99.30;101814.50;5078207;28;20028;-85
2022/12/04 08:35:06;;;;;;;57.60;27.38;;;;;;;0.06;98.77;101818.69;5077233;28;20031;-77
2022/12/04 08:37:31;;;;;;;58.72;28.65;;;;;;;0.07;99.24;101812.78;5078070;28;20032;-84
2022/12/04 08:39:57;;;;;;;56.05;28.40;;;;;;;0.07;98.45;101817.00;5076990;28;20071;-86
2022/12/04 08:42:23;;;;;;;57.47;28.80;;;;;;;0.09;98.37;101818.69;5076819;28;20032;-87
2022/12/04 08:44:48;;;;;;;54.58;28.05;;;;;;;-0.05;98.26;101785.75;5076595;28;20094;-88
2022/12/04 08:47:14;;;;;;;55.20;27.33;;;;;;;0.04;97.98;101792.47;5076409;28;20043;-86
2022/12/04 08:49:39;;;;;;;50.13;25.42;;;;;;;0.10;98.27;101799.22;5076604;28;20027;-78
2022/12/04 08:52:04;;;;;;;53.60;27.23;;;;;;;0.16;98.12;101810.19;5076602;28;20099;-77
2022/12/04 08:54:30;;;;;;;56.72;27.92;;;;;;;0.16;97.99;101794.97;5076661;28;20060;-76
2022/12/04 08:56:55;;;;;;;59.67;28.55;;;;;;;0.25;98.01;101799.16;5076355;28;20028;-88
2022/12/04 08:59:20;;;;;;;54.22;26.35;;;;;;;0.24;96.96;101790.69;5076504;28;20028;-87
2022/12/04 09:01:49;;;;;;;53.17;26.73;;;;;;;0.27;97.05;101788.13;5076303;28;20024;-90
2022/12/04 09:04:14;;;;;;;52.28;27.00;;;;;;;0.32;97.13;101800.81;5076126;28;20035;-89
2022/12/04 09:06:40;;;;;;;55.33;27.35;;;;;;;0.35;97.03;101797.41;5076222;28;20468;-90
2022/12/04 09:09:05;;;;;;;56.60;27.08;;;;;;;0.16;96.84;101767.03;5076051;28;20032;-88
2022/12/04 09:11:31;;;;;;;51.65;25.23;;;;;;;0.39;96.61;101802.44;5076005;28;20048;-85
2022/12/04 09:13:57;;;;;;;51.20;25.65;;;;;;;0.22;96.52;101774.63;5074659;28;20031;-86
2022/12/04 09:16:24;;;;;;;57.05;28.52;;;;;;;0.45;97.00;101799.06;5076010;28;20017;-88
2022/12/04 09:18:50;;;;;;;52.25;26.38;;;;;;;0.50;96.71;101798.19;5075877;28;20040;-86
2022/12/04 09:21:18;;;;;;;54.53;25.83;;;;;;;0.52;96.55;101799.00;5075721;28;20036;-89
2022/12/04 09:23:45;;;;;;;54.40;26.10;;;;;;;0.54;95.44;101799.00;5074930;28;20021;-88
2022/12/04 09:26:31;;;;;;;54.67;26.23;;;;;;;0.51;95.84;101799.88;5074667;28;20024;-87
2022/12/04 09:28:58;;;;;;;50.17;26.15;;;;;;;0.53;96.53;101797.31;5075681;28;20528;-86
2022/12/04 09:31:23;;;;;;;50.80;24.55;;;;;;;0.55;95.44;101811.69;5075884;28;20060;-87
2022/12/04 09:33:49;;;;;;;48.42;25.30;;;;;;;0.53;95.30;101820.19;5074229;28;20166;-87
2022/12/04 09:36:15;;;;;;;49.97;24.92;;;;;;;0.52;95.95;101810.88;5075410;28;20468;-86
2022/12/04 09:38:43;;;;;;;52.55;25.38;;;;;;;0.53;95.90;101823.56;5075530;28;20033;-86
2022/12/04 09:41:45;;;;;;;48.60;24.42;;;;;;;0.56;95.84;101815.06;5075514;28;20110;-86
2022/12/04 09:44:52;;;;;;;40.33;20.45;;;;;;;0.52;94.72;101821.88;5074173;28;20407;-86
2022/12/04 09:47:23;;;;;;;45.13;21.67;;;;;;;0.46;94.10;101821.06;5075741;28;20086;-88
2022/12/04 09:50:02;;;;;;;41.47;21.58;;;;;;;0.42;94.21;101815.16;5074067;28;20107;-85
2022/12/04 09:52:36;;;;;;;42.15;20.80;;;;;;;0.39;94.33;101819.41;5074865;28;20052;-81
2022/12/04 09:55:04;;;;;;;42.92;21.63;;;;;;;0.25;94.41;101801.69;5075244;28;20028;-83
2022/12/04 09:57:42;;;;;;;39.88;20.83;;;;;;;0.26;94.79;101804.22;5074145;28;20082;-84
2022/12/04 10:00:12;;;;;;;44.15;23.35;;;;;;;0.22;94.98;101787.31;5075354;28;20040;-82
2022/12/04 10:02:40;;;;;;;42.03;22.42;;;;;;;0.27;95.26;101794.91;5075074;28;20447;-83
2022/12/04 10:05:15;;;;;;;47.05;22.80;;;;;;;0.37;95.41;101810.94;5075079;28;20037;-85
2022/12/04 10:07:53;;;;;;;42.45;21.88;;;;;;;0.18;94.79;101783.09;5074975;28;20123;-85
2022/12/04 10:10:36;;;;;;;45.53;22.30;;;;;;;0.33;94.80;101816.91;5074905;28;20058;-82
2022/12/04 10:13:26;;;;;;;38.47;21.10;;;;;;;0.26;94.44;101811.00;5074898;28;20387;-85
2022/12/04 10:16:18;;;;;;;43.35;21.90;;;;;;;0.11;95.15;101790.78;5074750;28;20025;-85
2022/12/04 10:18:55;;;;;;;39.85;20.45;;;;;;;0.25;95.32;101819.47;5073653;28;20072;-84
2022/12/04 10:21:26;;;;;;;43.38;21.85;;;;;;;0.25;95.87;101819.47;5074009;28;20372;-83
2022/12/04 10:24:07;;;;;;;42.83;22.20;;;;;;;0.26;95.61;101818.63;5074666;28;20016;-84
2022/12/04 10:26:39;;;;;;;40.50;22.27;;;;;;;0.31;94.93;101813.53;5074658;28;20548;-85
2022/12/04 10:29:17;;;;;;;39.30;21.40;;;;;;;0.06;95.38;101782.31;5074503;28;20544;-83
2022/12/04 10:31:44;;;;;;;41.30;21.30;;;;;;;0.13;95.48;101799.22;5090564;28;20090;-85
2022/12/04 10:34:20;;;;;;;42.20;22.60;;;;;;;0.26;95.32;101803.38;5074338;28;20052;-83
2022/12/04 10:36:50;;;;;;;41.33;22.85;;;;;;;0.20;95.14;101809.34;5072784;28;20531;-84
2022/12/04 10:39:34;;;;;;;40.83;22.50;;;;;;;0.17;95.29;101801.72;5074133;28;20465;-83
2022/12/04 10:42:15;;;;;;;37.78;21.42;;;;;;;0.21;95.38;101820.34;5074390;28;20074;-87
2022/12/04 10:44:41;;;;;;;44.65;22.50;;;;;;;-0.02;95.43;101777.25;5074288;28;20030;-86
2022/12/04 10:47:11;;;;;;;42.35;22.35;;;;;;;0.04;96.03;101791.63;5074096;28;20453;-84
2022/12/04 10:49:36;;;;;;;39.15;20.73;;;;;;;0.13;95.52;101800.06;5074434;28;20453;-85
2022/12/04 10:52:03;;;;;;;42.28;22.45;;;;;;;-0.05;95.80;101767.13;5073940;28;20095;-86
2022/12/04 10:54:32;;;;;;;41.35;22.30;;;;;;;0.26;95.66;101818.63;5072876;28;20032;-85
2022/12/04 10:57:05;;;;;;;42.20;23.00;;;;;;;0.27;95.59;101818.59;5074097;28;20059;-81
2022/12/04 10:59:30;;;;;;;42.38;22.08;;;;;;;0.03;95.85;101765.41;5074082;28;20020;-82
2022/12/04 11:02:30;;;;;;;42.53;23.13;;;;;;;0.33;95.99;101810.13;5073768;28;20380;-86
2022/12/04 11:05:06;;;;;;;45.83;24.00;;;;;;;0.19;95.60;101789.84;5070514;28;20051;-85
2022/12/04 11:07:41;;;;;;;41.92;21.20;;;;;;;0.31;96.20;101795.75;5073616;28;20016;-85
2022/12/04 11:10:40;;;;;;;40.95;20.52;;;;;;;0.31;95.88;101794.06;5073821;28;20032;-86
2022/12/04 11:13:15;;;;;;;37.10;21.45;;;;;;;0.32;95.96;101789.81;5073747;28;20486;-82
2022/12/04 11:15:52;;;;;;;41.45;20.40;;;;;;;0.25;95.74;101779.69;5073827;28;20024;-86
2022/12/04 11:18:22;;;;;;;39.47;22.20;;;;;;;0.27;95.61;101790.66;5073879;28;20081;-85
2022/12/04 11:20:56;;;;;;;40.55;21.85;;;;;;;0.20;96.30;101772.94;5073589;28;20048;-87
2022/12/04 11:23:22;;;;;;;42.65;22.58;;;;;;;0.06;96.33;101736.59;5073602;28;20522;-78
2022/12/04 11:25:54;;;;;;;41.20;22.40;;;;;;;0.22;95.18;101763.63;5075731;28;20035;-89
2022/12/04 11:28:29;;;;;;;38.03;22.20;;;;;;;0.23;96.14;101766.16;5092078;28;20031;-86
2022/12/04 11:30:57;;;;;;;38.28;21.08;;;;;;;-0.04;95.87;101726.50;5074755;28;20035;-85
2022/12/04 11:33:39;;;;;;;39.83;21.00;;;;;;;0.25;96.09;101774.59;5073240;28;20549;-87
2022/12/04 11:36:25;;;;;;;40.83;22.02;;;;;;;0.27;96.37;101764.41;5073455;28;20561;-83
2022/12/04 11:38:53;;;;;;;41.47;21.98;;;;;;;0.28;96.39;101766.94;5073276;28;20475;-85
2022/12/04 11:41:28;;;;;;;39.22;21.58;;;;;;;0.33;96.43;101761.84;5073376;28;20028;-86